sensor_id;sensor_type;location;lat;lon;timestamp;pressure;altitude;pressure_sealevel;temperature;humidity
54850;BME280;47660;51.334;12.396;2023-07-20T00:00:57;99830.88;;;29.00;60.99
54850;BME280;47660;51.334;12.396;2023-07-20T00:03:28;99835.78;;;29.10;60.27
54850;BME280;47660;51.334;12.396;2023-07-20T00:05:58;99834.06;;;28.29;59.82
54850;BME280;47660;51.334;12.396;2023-07-20T00:08:26;99830.09;;;29.24;58.52
54850;BME280;47660;51.334;12.396;2023-07-20T00:10:55;99831.75;;;27.82;60.69
54850;BME280;47660;51.334;12.396;2023-07-20T00:13:23;99826.38;;;28.38;59.33
54850;BME280;47660;51.334;12.396;2023-07-20T00:15:49;99824.09;;;28.54;58.74
54850;BME280;47660;51.334;12.396;2023-07-20T00:18:14;99821.44;;;27.84;60.20
54850;BME280;47660;51.334;12.396;2023-07-20T00:20:40;99820.69;;;28.21;58.46
54850;BME280;47660;51.334;12.396;2023-07-20T00:23:06;99824.41;;;28.27;59.14
54850;BME280;47660;51.334;12.396;2023-07-20T00:25:34;99825.78;;;27.48;62.19
54850;BME280;47660;51.334;12.396;2023-07-20T00:28:00;99836.88;;;27.14;62.57
54850;BME280;47660;51.334;12.396;2023-07-20T00:30:28;99821.59;;;27.39;61.65
54850;BME280;47660;51.334;12.396;2023-07-20T00:32:56;99822.03;;;27.68;60.63
54850;BME280;47660;51.334;12.396;2023-07-20T00:35:21;99822.03;;;27.68;59.52
54850;BME280;47660;51.334;12.396;2023-07-20T00:37:46;99812.00;;;27.87;59.23
54850;BME280;47660;51.334;12.396;2023-07-20T00:40:12;99807.03;;;28.40;57.47
54850;BME280;47660;51.334;12.396;2023-07-20T00:42:37;99809.69;;;28.46;58.21
54850;BME280;47660;51.334;12.396;2023-07-20T00:45:03;99805.63;;;28.86;58.16
54850;BME280;47660;51.334;12.396;2023-07-20T00:47:29;99809.78;;;28.40;59.93
54850;BME280;47660;51.334;12.396;2023-07-20T00:49:57;99806.78;;;28.90;56.77
54850;BME280;47660;51.334;12.396;2023-07-20T00:52:24;99809.13;;;29.05;58.74
54850;BME280;47660;51.334;12.396;2023-07-20T00:54:53;99808.75;;;28.34;59.59
54850;BME280;47660;51.334;12.396;2023-07-20T00:57:24;99819.22;;;28.19;59.10
54850;BME280;47660;51.334;12.396;2023-07-20T00:59:52;99816.16;;;28.34;58.61
54850;BME280;47660;51.334;12.396;2023-07-20T01:02:18;99816.34;;;28.32;59.86
54850;BME280;47660;51.334;12.396;2023-07-20T01:04:49;99817.78;;;29.02;60.35
54850;BME280;47660;51.334;12.396;2023-07-20T01:07:33;99813.78;;;29.59;56.23
54850;BME280;47660;51.334;12.396;2023-07-20T01:10:06;99815.81;;;28.60;58.02
54850;BME280;47660;51.334;12.396;2023-07-20T01:12:41;99813.16;;;29.93;53.86
54850;BME280;47660;51.334;12.396;2023-07-20T01:15:07;99810.88;;;28.51;58.33
54850;BME280;47660;51.334;12.396;2023-07-20T01:17:33;99818.09;;;29.25;53.79
54850;BME280;47660;51.334;12.396;2023-07-20T01:19:59;99816.44;;;28.25;55.74
54850;BME280;47660;51.334;12.396;2023-07-20T01:33:12;99797.50;;;28.05;57.87
54850;BME280;47660;51.334;12.396;2023-07-20T01:35:42;99800.94;;;29.17;56.40
54850;BME280;47660;51.334;12.396;2023-07-20T01:38:12;99794.69;;;29.41;54.24
54850;BME280;47660;51.334;12.396;2023-07-20T01:40:39;99800.50;;;28.71;56.89
54850;BME280;47660;51.334;12.396;2023-07-20T01:43:05;99807.03;;;27.77;59.20
54850;BME280;47660;51.334;12.396;2023-07-20T01:45:31;99790.50;;;27.14;59.94
54850;BME280;47660;51.334;12.396;2023-07-20T01:47:59;99797.97;;;28.21;56.39
54850;BME280;47660;51.334;12.396;2023-07-20T01:50:25;99798.75;;;28.46;56.71
54850;BME280;47660;51.334;12.396;2023-07-20T01:52:50;99793.22;;;28.16;56.66
54850;BME280;47660;51.334;12.396;2023-07-20T01:55:21;99803.84;;;28.73;56.95
54850;BME280;47660;51.334;12.396;2023-07-20T01:57:47;99801.59;;;27.96;57.54
54850;BME280;47660;51.334;12.396;2023-07-20T02:00:12;99801.41;;;28.35;56.13
54850;BME280;47660;51.334;12.396;2023-07-20T02:02:38;99799.06;;;27.94;57.97
54850;BME280;47660;51.334;12.396;2023-07-20T02:05:04;99799.72;;;27.71;59.66
54850;BME280;47660;51.334;12.396;2023-07-20T02:07:29;99808.25;;;27.81;58.56
54850;BME280;47660;51.334;12.396;2023-07-20T02:10:01;99814.81;;;29.04;56.25
54850;BME280;47660;51.334;12.396;2023-07-20T02:12:28;99811.88;;;29.17;55.02
54850;BME280;47660;51.334;12.396;2023-07-20T02:14:56;99815.38;;;28.26;57.69
54850;BME280;47660;51.334;12.396;2023-07-20T02:17:22;99814.97;;;27.60;58.86
54850;BME280;47660;51.334;12.396;2023-07-20T02:19:53;99806.84;;;28.53;57.26
54850;BME280;47660;51.334;12.396;2023-07-20T02:22:21;99804.38;;;27.70;58.59
54850;BME280;47660;51.334;12.396;2023-07-20T02:24:49;99814.84;;;28.55;57.29
54850;BME280;47660;51.334;12.396;2023-07-20T02:27:15;99820.53;;;28.16;57.81
54850;BME280;47660;51.334;12.396;2023-07-20T02:29:41;99820.91;;;28.57;56.05
54850;BME280;47660;51.334;12.396;2023-07-20T02:32:08;99827.63;;;27.73;59.40
54850;BME280;47660;51.334;12.396;2023-07-20T02:34:37;99820.50;;;27.72;61.79
54850;BME280;47660;51.334;12.396;2023-07-20T02:37:03;99816.34;;;27.69;60.12
54850;BME280;47660;51.334;12.396;2023-07-20T02:39:32;99817.63;;;28.11;57.05
54850;BME280;47660;51.334;12.396;2023-07-20T02:41:57;99825.69;;;27.55;59.24
54850;BME280;47660;51.334;12.396;2023-07-20T02:44:25;99831.25;;;27.09;61.93
54850;BME280;47660;51.334;12.396;2023-07-20T02:46:50;99831.75;;;27.64;59.70
54850;BME280;47660;51.334;12.396;2023-07-20T02:49:19;99829.63;;;27.66;58.89
54850;BME280;47660;51.334;12.396;2023-07-20T02:51:48;99836.31;;;28.70;57.72
54850;BME280;47660;51.334;12.396;2023-07-20T02:54:13;99841.22;;;27.22;60.59
54850;BME280;47660;51.334;12.396;2023-07-20T02:56:41;99838.13;;;27.76;59.65
54850;BME280;47660;51.334;12.396;2023-07-20T02:59:06;99832.13;;;27.67;59.14
54850;BME280;47660;51.334;12.396;2023-07-20T03:01:34;99833.53;;;27.95;58.34
54850;BME280;47660;51.334;12.396;2023-07-20T03:03:59;99839.31;;;27.62;59.72
54850;BME280;47660;51.334;12.396;2023-07-20T03:06:25;99834.94;;;27.79;59.34
54850;BME280;47660;51.334;12.396;2023-07-20T03:08:53;99837.31;;;28.38;57.51
54850;BME280;47660;51.334;12.396;2023-07-20T03:11:21;99839.38;;;27.99;59.39
54850;BME280;47660;51.334;12.396;2023-07-20T03:13:48;99837.41;;;28.31;57.95
54850;BME280;47660;51.334;12.396;2023-07-20T03:16:19;99841.41;;;28.29;59.19
54850;BME280;47660;51.334;12.396;2023-07-20T03:18:47;99846.09;;;28.78;57.74
54850;BME280;47660;51.334;12.396;2023-07-20T03:21:15;99848.38;;;28.25;57.43
54850;BME280;47660;51.334;12.396;2023-07-20T03:23:40;99844.03;;;27.48;62.20
54850;BME280;47660;51.334;12.396;2023-07-20T03:26:06;99834.44;;;27.89;59.83
54850;BME280;47660;51.334;12.396;2023-07-20T03:28:38;99837.13;;;28.70;58.47
54850;BME280;47660;51.334;12.396;2023-07-20T03:31:06;99835.97;;;27.60;60.45
54850;BME280;47660;51.334;12.396;2023-07-20T03:33:33;99833.69;;;27.82;60.22
54850;BME280;47660;51.334;12.396;2023-07-20T03:35:59;99834.34;;;27.20;62.68
54850;BME280;47660;51.334;12.396;2023-07-20T03:38:26;99843.19;;;27.72;59.89
54850;BME280;47660;51.334;12.396;2023-07-20T03:41:00;99845.84;;;28.05;60.40
54850;BME280;47660;51.334;12.396;2023-07-20T03:43:27;99843.31;;;27.27;62.24
54850;BME280;47660;51.334;12.396;2023-07-20T03:45:53;99848.88;;;27.71;60.67
54850;BME280;47660;51.334;12.396;2023-07-20T03:48:22;99851.56;;;27.78;60.24
54850;BME280;47660;51.334;12.396;2023-07-20T03:50:52;99856.50;;;27.87;60.19
54850;BME280;47660;51.334;12.396;2023-07-20T03:53:18;99858.34;;;27.68;58.91
54850;BME280;47660;51.334;12.396;2023-07-20T03:55:51;99866.38;;;27.63;60.29
54850;BME280;47660;51.334;12.396;2023-07-20T03:58:23;99860.19;;;27.10;62.33
54850;BME280;47660;51.334;12.396;2023-07-20T04:00:50;99860.69;;;27.33;62.20
54850;BME280;47660;51.334;12.396;2023-07-20T04:03:16;99866.91;;;26.55;62.43
54850;BME280;47660;51.334;12.396;2023-07-20T04:05:42;99873.97;;;27.22;62.10
54850;BME280;47660;51.334;12.396;2023-07-20T04:08:08;99880.44;;;26.23;66.29
54850;BME280;47660;51.334;12.396;2023-07-20T04:10:34;99869.72;;;27.91;59.63
54850;BME280;47660;51.334;12.396;2023-07-20T04:13:02;99881.38;;;26.69;61.76
54850;BME280;47660;51.334;12.396;2023-07-20T04:15:27;99880.66;;;26.81;61.88
54850;BME280;47660;51.334;12.396;2023-07-20T04:17:53;99875.50;;;26.66;61.98
54850;BME280;47660;51.334;12.396;2023-07-20T04:20:18;99879.81;;;25.88;65.10
54850;BME280;47660;51.334;12.396;2023-07-20T04:22:44;99877.66;;;27.03;61.43
54850;BME280;47660;51.334;12.396;2023-07-20T04:25:14;99866.78;;;27.92;59.91
54850;BME280;47660;51.334;12.396;2023-07-20T04:27:39;99875.31;;;26.54;64.50
54850;BME280;47660;51.334;12.396;2023-07-20T04:30:07;99871.72;;;27.12;63.24
54850;BME280;47660;51.334;12.396;2023-07-20T04:32:33;99870.28;;;26.58;63.43
54850;BME280;47660;51.334;12.396;2023-07-20T04:35:06;99864.41;;;28.58;58.04
54850;BME280;47660;51.334;12.396;2023-07-20T04:37:33;99868.56;;;27.80;57.86
54850;BME280;47660;51.334;12.396;2023-07-20T04:40:01;99874.50;;;27.70;58.57
54850;BME280;47660;51.334;12.396;2023-07-20T04:42:32;99878.94;;;26.34;64.10
54850;BME280;47660;51.334;12.396;2023-07-20T04:45:00;99881.38;;;26.69;63.18
54850;BME280;47660;51.334;12.396;2023-07-20T04:47:28;99873.56;;;27.83;59.20
54850;BME280;47660;51.334;12.396;2023-07-20T04:49:54;99870.78;;;27.64;58.67
54850;BME280;47660;51.334;12.396;2023-07-20T04:52:19;99870.53;;;29.10;54.12
54850;BME280;47660;51.334;12.396;2023-07-20T04:54:47;99874.66;;;28.00;56.78
54850;BME280;47660;51.334;12.396;2023-07-20T04:57:15;99869.59;;;27.21;58.48
54850;BME280;47660;51.334;12.396;2023-07-20T04:59:41;99877.41;;;27.43;58.76
54850;BME280;47660;51.334;12.396;2023-07-20T05:02:09;99874.03;;;27.80;57.56
54850;BME280;47660;51.334;12.396;2023-07-20T05:04:35;99886.25;;;27.06;61.03
54850;BME280;47660;51.334;12.396;2023-07-20T05:07:00;99883.00;;;27.62;58.60
54850;BME280;47660;51.334;12.396;2023-07-20T05:09:25;99886.00;;;27.47;59.34
54850;BME280;47660;51.334;12.396;2023-07-20T05:11:51;99890.69;;;27.39;60.06
54850;BME280;47660;51.334;12.396;2023-07-20T05:14:24;99893.09;;;28.12;58.55
54850;BME280;47660;51.334;12.396;2023-07-20T05:16:50;99893.84;;;27.68;58.55
54850;BME280;47660;51.334;12.396;2023-07-20T05:19:18;99897.22;;;27.32;61.37
54850;BME280;47660;51.334;12.396;2023-07-20T05:21:43;99893.22;;;26.95;61.61
54850;BME280;47660;51.334;12.396;2023-07-20T05:24:11;99886.88;;;27.72;57.43
54850;BME280;47660;51.334;12.396;2023-07-20T05:26:36;99888.25;;;26.86;61.39
54850;BME280;47660;51.334;12.396;2023-07-20T05:29:03;99885.06;;;27.27;59.50
54850;BME280;47660;51.334;12.396;2023-07-20T05:31:34;99891.63;;;27.84;56.51
54850;BME280;47660;51.334;12.396;2023-07-20T05:34:01;99896.06;;;27.53;58.13
54850;BME280;47660;51.334;12.396;2023-07-20T05:36:27;99898.44;;;27.75;57.32
54850;BME280;47660;51.334;12.396;2023-07-20T05:38:55;99903.53;;;27.64;56.26
54850;BME280;47660;51.334;12.396;2023-07-20T05:41:22;99902.09;;;27.23;56.71
54850;BME280;47660;51.334;12.396;2023-07-20T05:43:48;99897.13;;;27.52;57.04
54850;BME280;47660;51.334;12.396;2023-07-20T05:46:13;99900.53;;;27.72;55.27
54850;BME280;47660;51.334;12.396;2023-07-20T05:48:41;99899.91;;;28.65;55.53
54850;BME280;47660;51.334;12.396;2023-07-20T05:51:07;99904.53;;;27.70;55.95
54850;BME280;47660;51.334;12.396;2023-07-20T05:53:32;99902.16;;;27.16;57.44
54850;BME280;47660;51.334;12.396;2023-07-20T05:55:57;99910.44;;;26.89;58.46
54850;BME280;47660;51.334;12.396;2023-07-20T05:58:23;99906.09;;;26.81;59.30
54850;BME280;47660;51.334;12.396;2023-07-20T06:00:53;99906.03;;;27.34;57.26
54850;BME280;47660;51.334;12.396;2023-07-20T06:03:18;99902.31;;;26.69;57.93
54850;BME280;47660;51.334;12.396;2023-07-20T06:05:46;99904.72;;;27.43;56.60
54850;BME280;47660;51.334;12.396;2023-07-20T06:08:14;99895.78;;;28.37;53.58
54850;BME280;47660;51.334;12.396;2023-07-20T06:10:39;99908.22;;;28.14;52.89
54850;BME280;47660;51.334;12.396;2023-07-20T06:13:08;99907.94;;;28.79;52.39
54850;BME280;47660;51.334;12.396;2023-07-20T06:15:35;99901.38;;;27.98;53.39
54850;BME280;47660;51.334;12.396;2023-07-20T06:18:01;99902.69;;;28.96;51.74
54850;BME280;47660;51.334;12.396;2023-07-20T06:20:27;99899.75;;;27.91;52.81
54850;BME280;47660;51.334;12.396;2023-07-20T06:22:52;99908.53;;;28.99;49.96
54850;BME280;47660;51.334;12.396;2023-07-20T06:25:17;99906.59;;;29.18;48.91
54850;BME280;47660;51.334;12.396;2023-07-20T06:27:45;99905.09;;;29.53;48.23
54850;BME280;47660;51.334;12.396;2023-07-20T06:30:15;99898.47;;;29.85;46.85
54850;BME280;47660;51.334;12.396;2023-07-20T06:32:40;99901.75;;;28.46;50.44
54850;BME280;47660;51.334;12.396;2023-07-20T06:35:09;99897.88;;;28.16;51.62
54850;BME280;47660;51.334;12.396;2023-07-20T06:37:35;99901.16;;;28.00;51.00
54850;BME280;47660;51.334;12.396;2023-07-20T06:40:05;99900.56;;;29.71;49.48
54850;BME280;47660;51.334;12.396;2023-07-20T06:42:30;99906.88;;;28.98;49.40
54850;BME280;47660;51.334;12.396;2023-07-20T06:44:57;99910.25;;;29.97;47.69
54850;BME280;47660;51.334;12.396;2023-07-20T06:47:22;99902.56;;;30.18;45.50
54850;BME280;47660;51.334;12.396;2023-07-20T06:49:50;99911.97;;;30.10;45.72
54850;BME280;47660;51.334;12.396;2023-07-20T06:52:16;99909.69;;;30.55;43.33
54850;BME280;47660;51.334;12.396;2023-07-20T06:54:44;99911.75;;;29.57;46.07
54850;BME280;47660;51.334;12.396;2023-07-20T06:57:12;99915.09;;;29.29;47.02
54850;BME280;47660;51.334;12.396;2023-07-20T06:59:46;99900.94;;;31.10;43.28
54850;BME280;47660;51.334;12.396;2023-07-20T07:02:19;99905.25;;;30.53;43.35
54850;BME280;47660;51.334;12.396;2023-07-20T07:04:45;99904.19;;;28.54;46.71
54850;BME280;47660;51.334;12.396;2023-07-20T07:07:14;99898.38;;;30.15;45.46
54850;BME280;47660;51.334;12.396;2023-07-20T07:09:42;99893.91;;;29.67;48.06
54850;BME280;47660;51.334;12.396;2023-07-20T07:12:08;99884.78;;;29.97;47.25
54850;BME280;47660;51.334;12.396;2023-07-20T07:14:38;99893.72;;;30.28;47.49
54850;BME280;47660;51.334;12.396;2023-07-20T07:17:04;99885.31;;;29.51;48.44
54850;BME280;47660;51.334;12.396;2023-07-20T07:19:29;99890.28;;;29.12;48.17
54850;BME280;47660;51.334;12.396;2023-07-20T07:21:54;99900.09;;;29.74;47.62
54850;BME280;47660;51.334;12.396;2023-07-20T07:24:20;99902.25;;;29.72;47.32
54850;BME280;47660;51.334;12.396;2023-07-20T07:26:50;99910.63;;;30.36;45.90
54850;BME280;47660;51.334;12.396;2023-07-20T07:29:18;99912.31;;;29.47;46.79
54850;BME280;47660;51.334;12.396;2023-07-20T07:31:45;99911.03;;;29.62;45.71
54850;BME280;47660;51.334;12.396;2023-07-20T07:34:13;99911.91;;;29.86;45.91
54850;BME280;47660;51.334;12.396;2023-07-20T07:36:41;99904.06;;;28.68;47.78
54850;BME280;47660;51.334;12.396;2023-07-20T07:39:06;99918.06;;;29.58;47.40
54850;BME280;47660;51.334;12.396;2023-07-20T07:41:32;99918.03;;;28.59;49.25
54850;BME280;47660;51.334;12.396;2023-07-20T07:44:00;99921.75;;;29.63;48.36
54850;BME280;47660;51.334;12.396;2023-07-20T07:46:25;99921.44;;;28.73;47.74
54850;BME280;47660;51.334;12.396;2023-07-20T07:48:51;99923.59;;;29.82;46.06
54850;BME280;47660;51.334;12.396;2023-07-20T07:51:19;99922.09;;;30.57;45.01
54850;BME280;47660;51.334;12.396;2023-07-20T07:53:45;99920.16;;;31.85;43.21
54850;BME280;47660;51.334;12.396;2023-07-20T07:56:11;99925.47;;;31.00;43.45
54850;BME280;47660;51.334;12.396;2023-07-20T07:58:37;99920.50;;;31.43;42.86
54850;BME280;47660;51.334;12.396;2023-07-20T08:01:02;99924.31;;;29.46;46.47
54850;BME280;47660;51.334;12.396;2023-07-20T08:03:28;99920.28;;;30.15;45.79
54850;BME280;47660;51.334;12.396;2023-07-20T08:05:54;99924.81;;;30.69;44.79
54850;BME280;47660;51.334;12.396;2023-07-20T08:08:22;99927.94;;;30.37;45.81
54850;BME280;47660;51.334;12.396;2023-07-20T08:10:55;99925.50;;;30.76;45.83
54850;BME280;47660;51.334;12.396;2023-07-20T08:13:20;99928.50;;;30.75;44.05
54850;BME280;47660;51.334;12.396;2023-07-20T08:15:49;99925.41;;;30.71;46.45
54850;BME280;47660;51.334;12.396;2023-07-20T08:18:17;99931.81;;;29.93;46.07
54850;BME280;47660;51.334;12.396;2023-07-20T08:20:46;99931.94;;;29.44;47.21
54850;BME280;47660;51.334;12.396;2023-07-20T08:23:13;99919.94;;;31.58;42.88
54850;BME280;47660;51.334;12.396;2023-07-20T08:25:39;99924.09;;;30.02;45.65
54850;BME280;47660;51.334;12.396;2023-07-20T08:28:13;99924.81;;;30.21;43.93
54850;BME280;47660;51.334;12.396;2023-07-20T08:30:41;99935.78;;;30.45;42.93
54850;BME280;47660;51.334;12.396;2023-07-20T08:33:10;99933.75;;;30.52;43.48
54850;BME280;47660;51.334;12.396;2023-07-20T08:35:38;99929.56;;;31.26;41.81
54850;BME280;47660;51.334;12.396;2023-07-20T08:38:07;99932.28;;;29.78;44.74
54850;BME280;47660;51.334;12.396;2023-07-20T08:40:43;99928.38;;;30.81;43.43
54850;BME280;47660;51.334;12.396;2023-07-20T08:43:13;99920.66;;;31.36;41.51
54850;BME280;47660;51.334;12.396;2023-07-20T08:45:44;99931.38;;;30.80;43.07
54850;BME280;47660;51.334;12.396;2023-07-20T08:48:13;99927.22;;;30.30;43.70
54850;BME280;47660;51.334;12.396;2023-07-20T08:50:40;99928.19;;;29.57;44.68
54850;BME280;47660;51.334;12.396;2023-07-20T08:53:06;99926.25;;;30.12;43.83
54850;BME280;47660;51.334;12.396;2023-07-20T08:55:34;99921.53;;;30.96;42.82
54850;BME280;47660;51.334;12.396;2023-07-20T08:58:02;99917.13;;;32.21;40.14
54850;BME280;47660;51.334;12.396;2023-07-20T09:00:29;99917.88;;;31.19;40.78
54850;BME280;47660;51.334;12.396;2023-07-20T09:02:58;99912.22;;;32.63;38.64
54850;BME280;47660;51.334;12.396;2023-07-20T09:05:25;99912.22;;;32.63;38.24
54850;BME280;47660;51.334;12.396;2023-07-20T09:07:55;99908.91;;;33.05;37.03
54850;BME280;47660;51.334;12.396;2023-07-20T09:10:22;99917.84;;;32.73;37.98
54850;BME280;47660;51.334;12.396;2023-07-20T09:12:48;99908.72;;;31.60;39.31
54850;BME280;47660;51.334;12.396;2023-07-20T09:15:13;99912.31;;;32.28;38.71
54850;BME280;47660;51.334;12.396;2023-07-20T09:17:39;99918.47;;;31.21;39.50
54850;BME280;47660;51.334;12.396;2023-07-20T09:20:06;99910.22;;;31.67;40.02
54850;BME280;47660;51.334;12.396;2023-07-20T09:22:38;99905.41;;;31.75;38.79
54850;BME280;47660;51.334;12.396;2023-07-20T09:25:17;99905.63;;;32.24;38.75
54850;BME280;47660;51.334;12.396;2023-07-20T09:27:47;99905.41;;;32.09;38.00
54850;BME280;47660;51.334;12.396;2023-07-20T09:30:14;99902.59;;;31.11;40.11
54850;BME280;47660;51.334;12.396;2023-07-20T09:32:45;99909.16;;;31.10;40.88
54850;BME280;47660;51.334;12.396;2023-07-20T09:35:22;99912.72;;;31.23;41.33
54850;BME280;47660;51.334;12.396;2023-07-20T09:37:58;99910.56;;;31.25;40.59
54850;BME280;47660;51.334;12.396;2023-07-20T09:40:26;99914.97;;;31.55;40.51
54850;BME280;47660;51.334;12.396;2023-07-20T09:43:07;99912.06;;;31.04;43.01
54850;BME280;47660;51.334;12.396;2023-07-20T09:45:35;99921.63;;;30.01;44.11
54850;BME280;47660;51.334;12.396;2023-07-20T09:48:07;99927.69;;;30.27;45.21
54850;BME280;47660;51.334;12.396;2023-07-20T09:50:35;99941.03;;;29.99;44.86
54850;BME280;47660;51.334;12.396;2023-07-20T09:53:04;99950.53;;;28.68;48.92
54850;BME280;47660;51.334;12.396;2023-07-20T09:55:31;99964.94;;;28.82;53.26
54850;BME280;47660;51.334;12.396;2023-07-20T09:57:58;99981.22;;;27.23;63.08
54850;BME280;47660;51.334;12.396;2023-07-20T10:00:24;99982.19;;;26.90;66.10
54850;BME280;47660;51.334;12.396;2023-07-20T10:02:58;99974.06;;;28.50;65.91
54850;BME280;47660;51.334;12.396;2023-07-20T10:05:34;99977.81;;;29.49;62.37
54850;BME280;47660;51.334;12.396;2023-07-20T10:08:14;99976.56;;;29.75;58.75
54850;BME280;47660;51.334;12.396;2023-07-20T10:10:44;99969.69;;;29.24;60.00
54850;BME280;47660;51.334;12.396;2023-07-20T10:13:21;99960.81;;;30.49;57.95
54850;BME280;47660;51.334;12.396;2023-07-20T10:15:54;99976.47;;;29.94;59.51
54850;BME280;47660;51.334;12.396;2023-07-20T10:18:29;99979.97;;;30.01;58.04
54850;BME280;47660;51.334;12.396;2023-07-20T10:21:00;99975.63;;;30.72;55.97
54850;BME280;47660;51.334;12.396;2023-07-20T10:23:30;99974.25;;;30.98;56.57
54850;BME280;47660;51.334;12.396;2023-07-20T10:25:57;99975.25;;;30.44;57.51
54850;BME280;47660;51.334;12.396;2023-07-20T10:28:24;99975.00;;;30.34;59.92
54850;BME280;47660;51.334;12.396;2023-07-20T10:30:50;99975.66;;;29.93;58.53
54850;BME280;47660;51.334;12.396;2023-07-20T10:33:20;99976.84;;;29.06;59.08
54850;BME280;47660;51.334;12.396;2023-07-20T10:38:18;99977.38;;;28.78;59.47
54850;BME280;47660;51.334;12.396;2023-07-20T10:40:54;99983.25;;;30.22;58.76
54850;BME280;47660;51.334;12.396;2023-07-20T10:43:20;99979.63;;;29.98;56.57
54850;BME280;47660;51.334;12.396;2023-07-20T10:45:50;99980.75;;;30.32;56.88
54850;BME280;47660;51.334;12.396;2023-07-20T10:48:35;99970.13;;;30.36;54.09
54850;BME280;47660;51.334;12.396;2023-07-20T10:51:20;99976.41;;;30.96;51.67
54850;BME280;47660;51.334;12.396;2023-07-20T10:53:48;99977.16;;;30.56;51.72
54850;BME280;47660;51.334;12.396;2023-07-20T10:56:26;99964.81;;;32.27;48.20
54850;BME280;47660;51.334;12.396;2023-07-20T10:58:59;99969.75;;;31.62;50.00
54850;BME280;47660;51.334;12.396;2023-07-20T11:01:30;99964.97;;;31.57;47.13
54850;BME280;47660;51.334;12.396;2023-07-20T11:03:58;99964.66;;;31.70;50.45
54850;BME280;47660;51.334;12.396;2023-07-20T11:09:12;99953.81;;;32.27;46.90
54850;BME280;47660;51.334;12.396;2023-07-20T11:14:10;99949.78;;;32.52;46.84
54850;BME280;47660;51.334;12.396;2023-07-20T11:16:46;99953.06;;;32.71;45.21
54850;BME280;47660;51.334;12.396;2023-07-20T11:19:16;99960.13;;;32.44;48.93
54850;BME280;47660;51.334;12.396;2023-07-20T11:21:43;99969.97;;;31.89;50.33
54850;BME280;47660;51.334;12.396;2023-07-20T11:24:11;99987.34;;;31.20;50.78
54850;BME280;47660;51.334;12.396;2023-07-20T11:26:52;99975.50;;;30.31;49.14
54850;BME280;47660;51.334;12.396;2023-07-20T11:29:21;99967.66;;;31.52;48.14
54850;BME280;47660;51.334;12.396;2023-07-20T11:31:48;99979.38;;;31.18;49.00
54850;BME280;47660;51.334;12.396;2023-07-20T11:34:19;99974.78;;;32.16;45.01
54850;BME280;47660;51.334;12.396;2023-07-20T11:36:49;99983.56;;;30.85;47.77
54850;BME280;47660;51.334;12.396;2023-07-20T11:39:21;99984.72;;;31.13;46.46
54850;BME280;47660;51.334;12.396;2023-07-20T11:41:52;99979.88;;;31.73;46.47
54850;BME280;47660;51.334;12.396;2023-07-20T11:44:20;99985.84;;;30.05;49.12
54850;BME280;47660;51.334;12.396;2023-07-20T11:47:03;99984.53;;;29.77;48.92
54850;BME280;47660;51.334;12.396;2023-07-20T11:49:29;99987.69;;;29.31;48.89
54850;BME280;47660;51.334;12.396;2023-07-20T11:51:55;100001.47;;;30.52;48.29
54850;BME280;47660;51.334;12.396;2023-07-20T11:54:21;99992.56;;;30.68;46.76
54850;BME280;47660;51.334;12.396;2023-07-20T11:56:48;99987.47;;;29.63;47.01
54850;BME280;47660;51.334;12.396;2023-07-20T11:59:18;99990.56;;;31.17;50.33
54850;BME280;47660;51.334;12.396;2023-07-20T12:01:44;99979.78;;;31.85;44.97
54850;BME280;47660;51.334;12.396;2023-07-20T12:04:10;99990.13;;;30.36;46.70
54850;BME280;47660;51.334;12.396;2023-07-20T12:06:37;99987.31;;;30.67;46.91
54850;BME280;47660;51.334;12.396;2023-07-20T12:09:03;99995.88;;;30.82;46.64
54850;BME280;47660;51.334;12.396;2023-07-20T12:11:42;99990.34;;;31.06;47.85
54850;BME280;47660;51.334;12.396;2023-07-20T12:14:08;99990.38;;;30.35;48.13
54850;BME280;47660;51.334;12.396;2023-07-20T12:16:35;99992.63;;;29.41;51.01
54850;BME280;47660;51.334;12.396;2023-07-20T12:19:09;99994.06;;;30.41;50.49
54850;BME280;47660;51.334;12.396;2023-07-20T12:21:40;99990.53;;;30.76;49.65
54850;BME280;47660;51.334;12.396;2023-07-20T12:24:10;99983.56;;;32.86;45.04
54850;BME280;47660;51.334;12.396;2023-07-20T12:26:36;99991.03;;;31.25;47.17
54850;BME280;47660;51.334;12.396;2023-07-20T12:29:03;99996.25;;;33.10;43.19
54850;BME280;47660;51.334;12.396;2023-07-20T12:31:36;99995.28;;;32.25;43.13
54850;BME280;47660;51.334;12.396;2023-07-20T12:34:02;99990.88;;;32.07;43.63
54850;BME280;47660;51.334;12.396;2023-07-20T12:36:30;99993.47;;;33.54;41.81
54850;BME280;47660;51.334;12.396;2023-07-20T12:39:00;99992.13;;;33.12;42.33
54850;BME280;47660;51.334;12.396;2023-07-20T12:41:31;99974.75;;;34.16;40.18
54850;BME280;47660;51.334;12.396;2023-07-20T12:43:59;99984.53;;;32.58;43.48
54850;BME280;47660;51.334;12.396;2023-07-20T12:46:26;99992.50;;;31.04;42.79
54850;BME280;47660;51.334;12.396;2023-07-20T12:48:54;99989.59;;;32.66;39.51
54850;BME280;47660;51.334;12.396;2023-07-20T12:51:19;99979.28;;;33.73;38.09
54850;BME280;47660;51.334;12.396;2023-07-20T12:53:45;99983.94;;;33.95;38.88
54850;BME280;47660;51.334;12.396;2023-07-20T12:56:12;99982.38;;;33.76;37.57
54850;BME280;47660;51.334;12.396;2023-07-20T12:58:38;99972.22;;;35.01;35.24
54850;BME280;47660;51.334;12.396;2023-07-20T13:01:03;99980.63;;;34.68;35.75
54850;BME280;47660;51.334;12.396;2023-07-20T13:03:29;99983.53;;;32.64;38.05
54850;BME280;47660;51.334;12.396;2023-07-20T13:05:55;99981.50;;;33.71;36.28
54850;BME280;47660;51.334;12.396;2023-07-20T13:08:23;99995.09;;;31.81;38.80
54850;BME280;47660;51.334;12.396;2023-07-20T13:10:50;99993.50;;;30.62;40.59
54850;BME280;47660;51.334;12.396;2023-07-20T13:13:18;99983.88;;;32.17;39.53